Time;durP1;ratioP1;P1;durP2;ratioP2;P2;SDS_P1;SDS_P2;PMS_P1;PMS_P2;Temp;Humidity;BMP_temperature;BMP_pressure;BME280_temperature;BME280_humidity;BME280_pressure;Samples;Min_cycle;Max_cycle;Signal;HPM_P1;HPM_P2
2022/10/10 00:02:46;;;;;;;;;10.00;10.00;;;;;18.15;56.48;101617.06;146605;651;46021;-69
2022/10/10 00:05:54;;;;;;;;;11.75;10.75;;;;;18.10;55.67;101619.53;146607;570;46012;-68
2022/10/10 00:09:02;;;;;;;;;8.50;8.50;;;;;16.24;54.93;101300.03;146608;572;46021;-65
2022/10/10 00:12:11;;;;;;;;;12.75;11.00;;;;;18.06;56.18;101624.62;146605;620;46012;-65
2022/10/10 00:15:15;;;;;;;;;7.00;5.50;;;;;18.00;56.48;101623.53;146607;607;46012;-67
2022/10/10 00:18:35;;;;;;;;;9.00;9.00;;;;;17.98;55.57;101621.72;146605;577;46016;-67
2022/10/10 00:21:30;;;;;;;;;11.25;8.75;;;;;17.93;56.29;101616.31;146604;611;47010;-67
2022/10/10 00:24:32;;;;;;;;;9.25;9.25;;;;;17.90;56.29;101615.31;146605;569;46915;-67
2022/10/10 00:27:30;;;;;;;;;9.00;9.00;;;;;17.93;56.41;101613.69;146607;634;46010;-70
2022/10/10 00:30:23;;;;;;;;;9.50;9.50;;;;;17.95;56.31;101622.50;146604;570;46916;-69
2022/10/10 00:33:17;;;;;;;;;11.00;10.25;;;;;18.00;55.92;101623.53;146605;578;46021;-70
2022/10/10 00:36:13;;;;;;;;;9.25;8.25;;;;;18.03;55.91;101629.75;146605;570;46035;-67
2022/10/10 00:39:14;;;;;;;;;11.00;9.25;;;;;18.05;55.22;101628.97;146609;582;46020;-69
2022/10/10 00:42:23;;;;;;;;;8.75;8.75;;;;;18.07;55.00;101629.94;146603;676;46014;-67
2022/10/10 00:45:42;;;;;;;;;9.25;9.25;;;;;16.29;54.82;101306.34;146610;578;45020;-67
2022/10/10 00:48:49;;;;;;;;;9.75;9.75;;;;;18.06;55.57;101609.75;146605;589;46014;-70
2022/10/10 00:52:05;;;;;;;;;12.50;11.00;;;;;18.08;55.57;101613.34;146607;669;46020;-69
2022/10/10 00:55:09;;;;;;;;;13.25;12.00;;;;;18.05;54.80;101621.09;146604;607;46017;-69
2022/10/10 00:58:20;;;;;;;;;9.00;9.00;;;;;18.01;56.18;101613.97;146608;633;46020;-66
2022/10/10 01:01:25;;;;;;;;;9.25;9.25;;;;;16.24;55.22;101320.06;146605;621;46013;-67
2022/10/10 01:04:50;;;;;;;;;10.25;9.25;;;;;17.82;54.97;101616.75;146608;631;46010;-67
2022/10/10 01:08:01;;;;;;;;;10.25;9.25;;;;;17.78;55.64;101624.50;146607;713;46017;-68
2022/10/10 01:11:21;;;;;;;;;11.50;9.50;;;;;17.74;55.61;101619.97;146609;637;46020;-67
2022/10/10 01:15:00;;;;;;;;;12.00;10.75;;;;;15.97;55.25;101315.56;146605;604;46016;-67
2022/10/10 01:18:48;;;;;;;;;9.25;8.25;;;;;15.91;55.18;101305.75;146606;602;46029;-66
2022/10/10 01:22:14;;;;;;;;;9.75;8.25;;;;;17.70;55.37;101618.09;146606;570;46016;-67
2022/10/10 01:25:44;;;;;;;;;10.50;10.50;;;;;17.65;55.45;101619.63;146608;618;46012;-68
2022/10/10 01:29:02;;;;;;;;;10.25;9.25;;;;;17.60;55.98;101618.59;146604;586;48014;-66
2022/10/10 01:32:18;;;;;;;;;10.25;10.25;;;;;17.63;56.17;101625.66;146608;645;46010;-70
2022/10/10 01:35:39;;;;;;;;;9.75;9.00;;;;;17.71;55.99;101629.47;146605;607;46016;-68
2022/10/10 01:39:11;;;;;;;;;11.25;10.50;;;;;17.76;56.02;101626.19;146606;615;46020;-69
2022/10/10 01:42:20;;;;;;;;;8.25;8.25;;;;;17.81;56.51;101620.22;146607;618;46012;-68
2022/10/10 01:45:15;;;;;;;;;10.50;10.25;;;;;17.90;56.90;101615.31;146612;642;45020;-69
2022/10/10 01:48:16;;;;;;;;;11.00;11.00;;;;;17.93;55.46;101605.81;146606;575;46016;-70
2022/10/10 01:51:47;;;;;;;;;11.50;11.25;;;;;17.95;55.22;101613.75;146625;586;45020;-68
2022/10/10 01:55:32;;;;;;;;;10.50;10.50;;;;;16.14;54.94;101293.56;146626;692;46012;-69
2022/10/10 01:59:13;;;;;;;;;8.00;8.00;;;;;17.99;55.12;101600.78;146631;574;45010;-68
2022/10/10 02:02:47;;;;;;;;;9.75;9.00;;;;;16.22;55.15;101285.09;146627;575;45016;-68
2022/10/10 02:05:50;;;;;;;;;12.50;11.50;;;;;18.01;55.79;101603.47;146628;602;45020;-68
2022/10/10 02:08:58;;;;;;;;;8.75;8.75;;;;;18.02;55.83;101607.88;146629;626;45915;-69
2022/10/10 02:11:53;;;;;;;;;11.00;9.00;;;;;18.05;56.31;101610.59;146629;585;45010;-69
2022/10/10 02:15:01;;;;;;;;;13.75;11.00;;;;;18.07;55.91;101618.50;146628;626;45015;-68
2022/10/10 02:18:06;;;;;;;;;9.75;9.75;;;;;18.09;56.15;101622.09;146629;592;45012;-66
2022/10/10 02:21:01;;;;;;;;;13.00;10.25;;;;;18.07;56.04;101616.81;146629;602;45020;-70
2022/10/10 02:23:59;;;;;;;;;11.00;9.50;;;;;18.03;56.38;101616.63;146624;611;45021;-69
2022/10/10 02:27:20;;;;;;;;;6.25;5.50;;;;;17.91;56.72;101611.84;146630;587;45010;-69
2022/10/10 02:30:30;;;;;;;;;8.25;7.75;;;;;17.72;57.28;101607.63;146627;590;45020;-68
2022/10/10 02:33:50;;;;;;;;;12.50;9.50;;;;;17.59;56.50;101618.53;146627;593;45016;-69
2022/10/10 02:36:48;;;;;;;;;12.00;10.50;;;;;17.54;57.47;101615.75;146629;601;45010;-66
2022/10/10 02:39:55;;;;;;;;;11.25;11.00;;;;;17.50;56.91;101619.06;146626;565;45016;-67
2022/10/10 02:42:54;;;;;;;;;9.50;9.50;;;;;17.47;57.31;101627.69;146627;605;45913;-68
2022/10/10 02:45:49;;;;;;;;;11.75;10.25;;;;;17.47;57.51;101634.69;146623;569;45917;-67
2022/10/10 02:48:42;;;;;;;;;12.75;11.00;;;;;17.45;57.96;101636.38;146624;614;45020;-65
2022/10/10 02:51:58;;;;;;;;;10.00;10.00;;;;;17.44;57.61;101637.19;146605;577;46919;-64
2022/10/10 02:54:59;;;;;;;;;11.00;9.75;;;;;17.35;58.33;101631.59;146608;583;46021;-65
2022/10/10 02:57:56;;;;;;;;;12.75;12.75;;;;;17.16;58.91;101630.88;146604;617;46016;-67
2022/10/10 03:00:54;;;;;;;;;11.25;11.00;;;;;17.04;59.09;101628.69;146608;572;46021;-64
2022/10/10 03:04:03;;;;;;;;;13.00;11.00;;;;;16.99;59.92;101635.47;146603;590;46915;-65
2022/10/10 03:06:58;;;;;;;;;10.00;10.00;;;;;16.92;59.87;101636.06;146607;671;46020;-65
2022/10/10 03:10:03;;;;;;;;;13.00;12.50;;;;;16.86;59.63;101643.69;146605;564;46915;-65
2022/10/10 03:13:03;;;;;;;;;10.75;10.75;;;;;16.83;59.01;101649.69;146607;566;46020;-65
2022/10/10 03:16:02;;;;;;;;;11.50;10.00;;;;;16.80;59.37;101649.56;146604;564;46017;-67
2022/10/10 03:19:19;;;;;;;;;12.50;11.75;;;;;15.01;58.01;101342.13;146609;569;46010;-66
2022/10/10 03:22:24;;;;;;;;;14.25;14.00;;;;;16.54;59.09;101609.19;146603;587;46013;-65
2022/10/10 03:25:23;;;;;;;;;15.25;13.00;;;;;16.78;58.84;101659.06;146602;708;46916;-67
2022/10/10 03:28:19;;;;;;;;;12.00;12.00;;;;;16.76;58.76;101667.69;146603;583;46016;-67
2022/10/10 03:31:29;;;;;;;;;12.25;10.00;;;;;16.74;58.48;101667.63;146606;620;46021;-66
2022/10/10 03:34:36;;;;;;;;;11.25;11.00;;;;;14.88;58.62;101351.97;146603;596;46915;-68
2022/10/10 03:37:35;;;;;;;;;15.00;13.00;;;;;16.77;58.97;101679.97;146606;627;46020;-68
2022/10/10 03:40:28;;;;;;;;;11.50;10.75;;;;;16.81;58.99;101674.91;146605;557;46014;-68
2022/10/10 03:43:26;;;;;;;;;13.25;11.00;;;;;16.91;58.57;101688.41;146602;597;46032;-68
2022/10/10 03:46:21;;;;;;;;;10.25;10.25;;;;;16.96;58.19;101693.00;146606;628;46012;-66
2022/10/10 03:49:22;;;;;;;;;15.25;14.50;;;;;16.98;59.10;101700.94;146606;668;46012;-68
2022/10/10 03:52:21;;;;;;;;;16.50;13.25;;;;;16.95;59.23;101692.94;146605;570;46916;-66
2022/10/10 03:55:37;;;;;;;;;14.25;14.25;;;;;14.99;58.98;101364.66;146605;582;47010;-66
2022/10/10 03:58:38;;;;;;;;;13.50;13.25;;;;;16.84;59.79;101698.63;146599;569;46015;-67
2022/10/10 04:01:41;;;;;;;;;13.75;12.00;;;;;15.23;60.11;101417.09;146606;576;46010;-68
2022/10/10 04:04:40;;;;;;;;;15.00;14.00;;;;;16.78;61.19;101698.37;146602;667;46036;-68
2022/10/10 04:07:32;;;;;;;;;19.75;17.75;;;;;16.68;62.14;101701.41;146698;569;46023;-67
2022/10/10 04:10:33;;;;;;;;;15.75;14.75;;;;;16.62;60.71;101703.75;146611;572;46016;-68
2022/10/10 04:13:35;;;;;;;;;14.25;13.75;;;;;16.58;59.68;101707.97;146613;594;46021;-70
2022/10/10 04:16:39;;;;;;;;;20.00;19.00;;;;;16.56;60.33;101708.75;146611;591;46012;-73
2022/10/10 04:19:34;;;;;;;;;21.75;19.50;;;;;16.52;60.00;101717.31;146612;549;47013;-72
2022/10/10 04:22:27;;;;;;;;;18.25;15.25;;;;;16.50;60.16;101717.22;146609;640;46017;-72
2022/10/10 04:25:31;;;;;;;;;16.75;14.50;;;;;16.53;59.90;101721.69;146611;692;46020;-68
2022/10/10 04:28:24;;;;;;;;;17.00;13.50;;;;;16.54;60.07;101729.63;146611;614;46013;-70
2022/10/10 04:31:22;;;;;;;;;16.25;13.75;;;;;16.51;59.90;101731.19;146614;579;46020;-70
2022/10/10 04:34:20;;;;;;;;;17.00;16.00;;;;;16.38;60.27;101725.44;146610;600;46016;-70
2022/10/10 04:37:17;;;;;;;;;16.50;14.75;;;;;16.37;60.07;101728.87;146614;617;46010;-70
2022/10/10 04:40:19;;;;;;;;;18.75;14.50;;;;;16.38;60.29;101733.28;146610;634;46016;-70
2022/10/10 04:43:20;;;;;;;;;18.25;15.50;;;;;16.34;60.14;101728.75;146612;632;46020;-70
2022/10/10 04:46:20;;;;;;;;;15.00;13.25;;;;;16.33;60.50;101728.72;146610;579;46915;-70
2022/10/10 04:49:16;;;;;;;;;21.50;17.75;;;;;16.32;60.46;101729.50;146611;602;47011;-70
2022/10/10 04:52:09;;;;;;;;;21.00;19.00;;;;;16.31;60.92;101739.09;146609;606;46016;-67
2022/10/10 04:55:06;;;;;;;;;16.00;13.75;;;;;16.32;60.66;101735.66;146610;698;47010;-66
2022/10/10 04:58:03;;;;;;;;;14.75;13.50;;;;;16.35;60.53;101738.41;146607;633;47032;-70
2022/10/10 05:01:09;;;;;;;;;13.75;13.25;;;;;16.38;60.12;101732.41;146611;650;46020;-70
2022/10/10 05:04:13;;;;;;;;;16.00;14.00;;;;;16.50;60.75;101732.03;146609;590;46016;-70
2022/10/10 05:07:11;;;;;;;;;17.25;15.75;;;;;16.94;60.82;101733.06;146608;607;46020;-69
2022/10/10 05:10:08;;;;;;;;;20.50;19.00;;;;;17.62;59.32;101734.91;146606;621;46016;-70
2022/10/10 05:13:07;;;;;;;;;16.75;15.25;;;;;18.37;57.85;101736.84;146608;640;46011;-66
2022/10/10 05:15:59;;;;;;;;;18.00;14.75;;;;;19.05;55.85;101745.34;146601;645;46915;-67
2022/10/10 05:19:00;;;;;;;;;17.75;15.50;;;;;19.68;54.91;101745.59;146608;591;46020;-68
2022/10/10 05:22:08;;;;;;;;;16.75;16.00;;;;;20.37;53.49;101746.69;146601;578;46916;-69
2022/10/10 05:25:30;;;;;;;;;21.75;20.25;;;;;19.13;51.39;101417.88;146606;605;46020;-68
2022/10/10 05:28:34;;;;;;;;;37.50;31.25;;;;;21.63;50.09;101750.78;146600;684;47916;-69
2022/10/10 05:31:27;;;;;;;;;33.75;29.50;;;;;22.02;49.97;101753.38;146608;596;46010;-69
2022/10/10 05:34:21;;;;;;;;;28.75;24.75;;;;;22.49;49.01;101756.13;146604;580;46015;-68
2022/10/10 05:37:18;;;;;;;;;27.00;24.25;;;;;22.94;47.64;101757.81;146609;614;46010;-70
2022/10/10 05:40:23;;;;;;;;;;;;;;;;;;;;;
2022/10/10 05:43:21;;;;;;;;;23.50;22.50;;;;;23.57;46.89;101752.63;146607;611;46021;-69
2022/10/10 05:46:17;;;;;;;;;21.75;18.25;;;;;23.79;46.67;101757.38;146605;584;46016;-70
2022/10/10 05:49:16;;;;;;;;;16.00;16.00;;;;;23.89;45.94;101753.06;146607;610;46021;-70
2022/10/10 05:52:17;;;;;;;;;21.50;21.50;;;;;23.89;46.17;101758.38;146605;625;46016;-70
2022/10/10 05:55:22;;;;;;;;;22.50;22.50;;;;;23.85;46.18;101767.16;146611;650;46020;-68
2022/10/10 05:58:20;;;;;;;;;19.25;17.75;;;;;23.86;45.86;101769.84;146603;587;46917;-68
2022/10/10 06:01:30;;;;;;;;;19.50;17.00;;;;;23.84;45.75;101776.88;146610;612;46020;-67
2022/10/10 06:04:45;;;;;;;;;;;;;;;;;;;;;
2022/10/10 06:07:41;;;;;;;;;17.25;15.50;;;;;23.72;46.74;101776.69;146608;620;46010;-69
2022/10/10 06:10:43;;;;;;;;;19.75;16.75;;;;;23.68;46.40;101774.84;146604;612;46016;-68
2022/10/10 06:13:40;;;;;;;;;15.50;14.00;;;;;23.57;47.12;101772.03;146609;761;46020;-68
2022/10/10 06:16:39;;;;;;;;;14.25;12.50;;;;;23.46;47.25;101777.19;146604;668;46012;-69
2022/10/10 06:19:34;;;;;;;;;14.75;14.00;;;;;23.42;47.94;101783.28;146606;606;47010;-70
2022/10/10 06:22:28;;;;;;;;;17.00;14.50;;;;;23.43;48.21;101790.38;146603;570;46012;-68
2022/10/10 06:25:20;;;;;;;;;17.50;14.25;;;;;23.46;47.75;101790.41;146607;585;46020;-69
2022/10/10 06:28:14;;;;;;;;;15.00;14.25;;;;;23.48;47.66;101787.78;146603;599;46017;-68
2022/10/10 06:31:08;;;;;;;;;13.75;13.75;;;;;23.48;48.24;101787.78;146607;584;46010;-68
2022/10/10 06:34:04;;;;;;;;;17.00;15.50;;;;;23.52;48.29;101786.97;146604;619;46017;-68
2022/10/10 06:36:56;;;;;;;;;16.50;15.50;;;;;23.59;48.20;101795.91;146609;569;46010;-67
2022/10/10 06:39:48;;;;;;;;;18.50;17.00;;;;;23.64;47.91;101797.72;146601;565;47012;-67
2022/10/10 06:42:44;;;;;;;;;16.75;14.25;;;;;23.67;47.83;101799.53;146609;589;46021;-68
2022/10/10 06:45:48;;;;;;;;;16.50;15.75;;;;;23.64;48.08;101802.13;146605;569;46016;-71
2022/10/10 06:48:45;;;;;;;;;16.75;16.75;;;;;23.65;48.00;101794.22;146609;661;46010;-67
2022/10/10 06:51:43;;;;;;;;;17.25;16.75;;;;;23.69;47.69;101804.03;146600;682;47012;-68
2022/10/10 06:54:35;;;;;;;;;16.00;15.25;;;;;23.78;48.31;101805.91;146605;569;47010;-68
2022/10/10 06:57:33;;;;;;;;;13.50;11.50;;;;;23.87;47.80;101803.41;146604;569;46017;-69
2022/10/10 07:00:31;;;;;;;;;11.50;11.50;;;;;23.93;47.77;101789.34;146605;617;47010;-68
2022/10/10 07:03:24;;;;;;;;;12.75;12.75;;;;;24.18;47.65;101798.50;146602;571;46013;-69
2022/10/10 07:06:28;;;;;;;;;17.25;15.50;;;;;24.34;47.40;101811.06;146609;569;46010;-69
2022/10/10 07:09:23;;;;;;;;;15.00;14.75;;;;;24.36;47.22;101809.31;146605;571;46016;-70
2022/10/10 07:12:16;;;;;;;;;15.50;15.00;;;;;24.36;47.28;101806.66;146606;601;47012;-67
2022/10/10 07:15:13;;;;;;;;;13.50;12.25;;;;;24.49;47.36;101821.00;146604;650;46012;-69
2022/10/10 07:18:14;;;;;;;;;14.75;14.50;;;;;24.63;47.19;101819.34;146606;584;46011;-70
2022/10/10 07:21:10;;;;;;;;;14.50;14.00;;;;;24.73;46.32;101824.75;146605;601;46016;-68
2022/10/10 07:24:02;;;;;;;;;13.00;13.00;;;;;24.77;46.80;101813.34;146609;611;46020;-68
2022/10/10 07:27:03;;;;;;;;;13.50;13.50;;;;;24.86;46.75;101818.72;146604;653;46017;-69
2022/10/10 07:30:10;;;;;;;;;;;;;;;;;;;;;
2022/10/10 07:33:10;;;;;;;;;12.50;11.75;;;;;25.22;45.93;101802.25;146602;591;46014;-69
2022/10/10 07:36:12;;;;;;;;;14.25;14.00;;;;;25.28;46.10;101801.44;146608;568;46020;-69
2022/10/10 07:39:09;;;;;;;;;13.50;13.50;;;;;25.37;46.08;101804.16;146606;606;46012;-67
2022/10/10 07:42:29;;;;;;;;;;;;;;;;;;;;;
2022/10/10 07:45:24;;;;;;;;;15.50;15.00;;;;;25.60;46.14;101804.28;146605;575;46914;-69
2022/10/10 07:48:23;;;;;;;;;14.50;14.25;;;;;25.67;46.68;101803.47;146608;564;46020;-68
2022/10/10 07:51:24;;;;;;;;;14.00;14.00;;;;;25.71;46.53;101799.94;146605;579;46016;-68
2022/10/10 07:54:20;;;;;;;;;13.50;12.00;;;;;25.78;45.80;101792.91;146610;582;46020;-67
2022/10/10 07:57:18;;;;;;;;;13.25;13.25;;;;;25.82;46.29;101800.03;146604;617;46016;-69
2022/10/10 08:00:14;;;;;;;;;13.50;12.00;;;;;25.87;45.80;101794.75;146609;594;46032;-69
2022/10/10 08:03:08;;;;;;;;;15.00;14.00;;;;;25.96;45.64;101794.81;146604;589;46917;-68
2022/10/10 08:06:11;;;;;;;;;13.25;13.25;;;;;26.04;46.07;101785.06;146610;628;46020;-68
2022/10/10 08:09:07;;;;;;;;;11.00;11.00;;;;;26.12;46.04;101795.75;146603;615;46017;-68
2022/10/10 08:12:00;;;;;;;;;13.00;11.75;;;;;26.19;46.54;101792.22;146607;569;46020;-67
2022/10/10 08:14:52;;;;;;;;;12.25;11.75;;;;;26.24;45.86;101794.03;146605;578;46016;-69
2022/10/10 08:17:48;;;;;;;;;10.50;10.50;;;;;26.23;46.43;101800.25;146611;593;46021;-68
2022/10/10 08:20:46;;;;;;;;;14.75;13.75;;;;;26.19;46.51;101794.88;146601;765;46012;-67
2022/10/10 08:23:49;;;;;;;;;7.50;5.50;;;;;26.05;46.89;101796.63;146609;567;46021;-69
2022/10/10 08:26:59;;;;;;;;;12.25;11.75;;;;;25.90;47.20;101803.63;146611;713;46012;-69
2022/10/10 08:29:53;;;;;;;;;11.50;11.00;;;;;25.87;47.49;101803.59;146608;583;46010;-68
2022/10/10 08:33:00;;;;;;;;;12.00;11.75;;;;;25.82;47.53;101797.38;146601;667;46012;-68
2022/10/10 08:35:52;;;;;;;;;13.50;13.50;;;;;25.77;48.41;101802.66;146605;596;46010;-69
2022/10/10 08:38:56;;;;;;;;;13.25;12.00;;;;;25.77;48.00;101804.41;146606;625;46016;-68
2022/10/10 08:42:24;;;;;;;;;14.00;11.75;;;;;24.92;47.70;101661.34;146607;633;46012;-69
2022/10/10 08:45:36;;;;;;;;;13.75;13.25;;;;;25.75;47.01;101807.06;146605;575;46014;-67
2022/10/10 08:48:52;;;;;;;;;11.00;11.00;;;;;25.72;47.45;101808.81;146608;667;46010;-69
2022/10/10 08:52:04;;;;;;;;;10.00;9.00;;;;;25.71;47.34;101804.38;146606;570;46016;-68
2022/10/10 08:55:16;;;;;;;;;12.00;12.00;;;;;25.74;47.79;101799.09;146616;565;46021;-69
2022/10/10 08:58:43;;;;;;;;;4.25;3.25;;;;;25.76;47.39;101784.03;146604;637;46916;-68
2022/10/10 09:01:53;;;;;;;;;12.50;12.00;;;;;25.12;47.22;101654.41;146615;583;46028;-68
2022/10/10 09:04:50;;;;;;;;;11.25;10.25;;;;;26.02;46.76;101805.47;146605;566;46016;-68
2022/10/10 09:08:29;;;;;;;;;11.00;10.00;;;;;26.06;47.20;101804.59;146605;578;47010;-69
2022/10/10 09:12:15;;;;;;;;;12.00;11.25;;;;;25.98;46.36;101778.00;146604;635;46017;-72
2022/10/10 09:15:31;;;;;;;;;12.00;11.75;;;;;26.23;46.33;101799.31;146608;643;46020;-73
2022/10/10 09:19:05;;;;;;;;;10.00;10.00;;;;;26.31;45.41;101802.03;146605;575;46016;-67
2022/10/10 09:22:28;;;;;;;;;11.75;10.25;;;;;24.82;45.17;101541.91;146601;632;46020;-69
2022/10/10 09:26:01;;;;;;;;;;;;;;;;;;;;;
2022/10/10 09:29:02;;;;;;;;;12.00;10.75;;;;;26.26;45.22;101792.28;146616;590;46020;-69
2022/10/10 09:32:30;;;;;;;;;11.00;10.25;;;;;26.24;45.02;101791.38;146605;581;46027;-69
2022/10/10 09:35:55;;;;;;;;;10.00;8.50;;;;;26.21;45.14;101799.34;146608;617;47020;-69
2022/10/10 09:39:32;;;;;;;;;;;;;;;;;;;;;
2022/10/10 09:42:42;;;;;;;;;13.25;12.75;;;;;26.09;46.26;101799.28;146606;657;47008;-70
2022/10/10 09:45:46;;;;;;;;;12.75;12.00;;;;;26.13;45.95;101797.53;146603;616;46012;-69
2022/10/10 09:48:42;;;;;;;;;10.75;10.75;;;;;26.18;44.96;101786.03;146611;614;46020;-68
2022/10/10 09:51:50;;;;;;;;;16.00;11.75;;;;;26.21;44.92;101785.16;146606;618;47016;-68
2022/10/10 09:54:48;;;;;;;;;9.25;9.25;;;;;26.21;44.51;101782.50;146602;586;47010;-67
2022/10/10 09:58:02;;;;;;;;;10.00;9.00;;;;;26.19;44.56;101779.81;146610;701;47012;-69
2022/10/10 10:01:13;;;;;;;;;11.75;10.75;;;;;26.23;43.13;101776.31;146618;666;46021;-69
2022/10/10 10:04:39;;;;;;;;;9.75;9.75;;;;;25.47;44.61;101633.37;146605;631;46012;-69
2022/10/10 10:07:52;;;;;;;;;12.75;10.50;;;;;26.40;43.96;101775.47;146614;566;46020;-70
2022/10/10 10:10:46;;;;;;;;;11.75;11.00;;;;;26.53;43.81;101779.06;146603;609;47012;-68
2022/10/10 10:13:42;;;;;;;;;7.00;7.00;;;;;26.56;43.49;101777.31;146609;653;46012;-68
2022/10/10 10:16:58;;;;;;;;;11.00;11.00;;;;;26.58;45.07;101774.66;146611;575;46918;-69
2022/10/10 10:20:01;;;;;;;;;10.75;10.00;;;;;26.58;44.89;101778.19;146609;686;46020;-68
2022/10/10 10:22:58;;;;;;;;;11.75;10.75;;;;;26.53;44.62;101761.34;146607;707;46033;-69
2022/10/10 10:26:11;;;;;;;;;15.75;14.00;;;;;26.47;44.94;101751.53;146602;570;46020;-70
2022/10/10 10:29:25;;;;;;;;;12.00;11.25;;;;;26.41;44.18;101755.97;146604;597;46033;-68
2022/10/10 10:33:16;;;;;;;;;12.00;12.00;;;;;25.60;44.38;101612.19;146608;628;46020;-68
2022/10/10 10:36:53;;;;;;;;;9.25;8.50;;;;;25.63;44.89;101614.84;146599;569;48012;-68
2022/10/10 10:40:22;;;;;;;;;11.00;10.75;;;;;26.54;44.12;101754.25;146615;678;46012;-69
2022/10/10 10:43:44;;;;;;;;;11.50;11.50;;;;;26.45;44.10;101756.00;146604;582;46014;-69
2022/10/10 10:47:15;;;;;;;;;11.50;11.50;;;;;25.50;45.13;101605.97;146607;595;47012;-69
2022/10/10 10:50:44;;;;;;;;;14.75;14.75;;;;;26.24;45.11;101754.16;146604;592;46012;-68
2022/10/10 10:54:28;;;;;;;;;12.50;12.50;;;;;25.38;45.19;101617.41;146607;698;46011;-69
2022/10/10 10:58:03;;;;;;;;;13.50;12.50;;;;;26.28;45.75;101739.09;146602;725;47012;-70
2022/10/10 11:01:07;;;;;;;;;16.00;14.75;;;;;26.44;44.84;101737.34;146602;578;46020;-69
2022/10/10 11:04:40;;;;;;;;;11.50;11.50;;;;;25.66;45.35;101596.28;146602;709;47012;-69
2022/10/10 11:07:58;;;;;;;;;17.00;13.75;;;;;26.39;44.85;101741.78;146608;580;46021;-68
2022/10/10 11:11:53;;;;;;;;;11.00;11.00;;;;;25.39;45.00;101590.00;146604;640;46016;-69
2022/10/10 11:15:37;;;;;;;;;13.25;12.75;;;;;25.91;46.25;101736.31;146607;587;47013;-68
2022/10/10 11:19:04;;;;;;;;;12.75;12.75;;;;;25.74;46.63;101730.91;146603;596;46016;-70
2022/10/10 11:22:35;;;;;;;;;14.50;13.00;;;;;25.74;47.39;101733.56;146605;689;47010;-69
2022/10/10 11:25:55;;;;;;;;;12.50;12.00;;;;;25.81;46.22;101731.84;146603;601;46016;-69
2022/10/10 11:29:33;;;;;;;;;13.00;13.00;;;;;25.25;46.46;101628.88;146605;653;47010;-69
2022/10/10 11:32:44;;;;;;;;;15.75;14.25;;;;;25.84;47.14;101730.97;146603;609;46024;-69
2022/10/10 11:36:28;;;;;;;;;16.75;13.75;;;;;25.86;46.22;101707.94;146602;616;46020;-69
2022/10/10 11:39:58;;;;;;;;;14.50;12.75;;;;;25.91;46.55;101724.78;146599;570;48012;-70
2022/10/10 11:43:00;;;;;;;;;14.00;13.00;;;;;25.71;46.57;101711.41;146607;621;46020;-68
2022/10/10 11:46:14;;;;;;;;;18.00;14.50;;;;;25.56;46.35;101701.59;146605;629;46034;-69
2022/10/10 11:49:35;;;;;;;;;13.00;13.00;;;;;25.60;47.51;101697.19;146607;632;46020;-68
2022/10/10 11:52:53;;;;;;;;;16.00;14.25;;;;;25.79;46.36;101704.34;146601;578;47012;-69
2022/10/10 11:56:13;;;;;;;;;14.25;13.00;;;;;25.98;46.61;101695.59;146606;577;46020;-68
2022/10/10 11:59:32;;;;;;;;;7.50;7.50;;;;;26.16;45.55;101692.09;146604;594;47015;-68
2022/10/10 12:02:43;;;;;;;;;15.50;15.50;;;;;26.31;45.15;101679.72;146612;635;47010;-70
2022/10/10 12:05:50;;;;;;;;;12.50;12.00;;;;;26.40;44.48;101677.97;146605;596;46016;-70
2022/10/10 12:08:53;;;;;;;;;17.75;17.50;;;;;26.53;43.83;101678.00;146602;564;46021;-69
2022/10/10 12:12:20;;;;;;;;;15.25;15.25;;;;;26.66;42.74;101662.03;146604;614;46016;-69
2022/10/10 12:15:35;;;;;;;;;16.75;16.00;;;;;25.96;42.85;101519.31;146608;629;46021;-69
2022/10/10 12:18:55;;;;;;;;;15.75;14.00;;;;;26.92;42.46;101659.38;146603;685;46012;-71
2022/10/10 12:22:27;;;;;;;;;15.00;15.00;;;;;27.02;42.48;101665.56;146610;572;46021;-70
2022/10/10 12:25:46;;;;;;;;;15.00;15.00;;;;;27.08;42.03;101657.56;146602;583;46012;-69
2022/10/10 12:29:20;;;;;;;;;;;;;;;;;;;;;
2022/10/10 12:32:51;;;;;;;;;19.50;15.00;;;;;26.22;42.04;101491.84;146604;628;46016;-69
2022/10/10 12:35:50;;;;;;;;;15.50;14.00;;;;;27.09;41.37;101634.47;146607;606;46020;-70
2022/10/10 12:39:04;;;;;;;;;15.50;15.25;;;;;27.03;40.26;101639.81;146602;608;46012;-69
2022/10/10 12:42:17;;;;;;;;;15.50;14.50;;;;;26.89;41.29;101630.09;146600;586;46020;-70
2022/10/10 12:45:56;;;;;;;;;13.75;13.75;;;;;26.92;42.37;101629.22;146604;590;46014;-69
2022/10/10 12:49:38;;;;;;;;;16.75;15.00;;;;;26.96;41.28;101630.97;146608;661;46020;-70
2022/10/10 12:53:06;;;;;;;;;15.00;14.50;;;;;27.01;40.82;101622.97;146605;610;46016;-68
2022/10/10 12:56:11;;;;;;;;;13.75;13.75;;;;;27.02;40.03;101630.06;146605;612;47012;-69
2022/10/10 12:59:11;;;;;;;;;15.75;15.25;;;;;27.02;40.81;101630.94;146602;614;46013;-69
2022/10/10 13:02:18;;;;;;;;;19.00;17.25;;;;;27.00;40.54;101619.41;146607;570;46020;-69
2022/10/10 13:05:15;;;;;;;;;13.00;12.75;;;;;26.99;40.69;101622.97;146602;590;46918;-71
2022/10/10 13:08:23;;;;;;;;;16.25;15.25;;;;;26.99;41.77;101620.31;146610;573;46010;-70
2022/10/10 13:11:24;;;;;;;;;18.25;17.00;;;;;27.03;41.08;101627.38;146599;604;47918;-69
2022/10/10 13:14:17;;;;;;;;;15.00;14.75;;;;;27.02;39.92;101614.97;146601;586;46021;-69
2022/10/10 13:17:45;;;;;;;;;;;;;;;;;;;;;
2022/10/10 13:20:43;;;;;;;;;17.75;14.00;;;;;27.02;42.34;101630.94;146608;597;46020;-69
2022/10/10 13:23:36;;;;;;;;;15.25;15.25;;;;;26.97;42.38;101642.50;146607;565;46014;-70
2022/10/10 13:26:42;;;;;;;;;13.75;13.50;;;;;26.95;41.86;101638.06;146609;585;46020;-68
2022/10/10 13:29:43;;;;;;;;;16.00;15.00;;;;;26.94;41.91;101635.41;146605;578;46014;-68
2022/10/10 13:32:38;;;;;;;;;14.00;14.00;;;;;26.91;41.74;101630.97;146607;584;46020;-70
2022/10/10 13:35:31;;;;;;;;;15.75;15.00;;;;;26.88;40.34;101630.09;146604;597;46015;-70
2022/10/10 13:38:29;;;;;;;;;15.25;15.25;;;;;26.81;41.28;101636.31;146608;611;46021;-69
2022/10/10 13:41:36;;;;;;;;;19.00;16.50;;;;;25.86;42.02;101488.31;146605;571;46016;-69
2022/10/10 13:45:04;;;;;;;;;;;;;;;;;;;;;
2022/10/10 13:48:40;;;;;;;;;13.00;13.00;;;;;25.74;41.80;101489.16;146604;582;46012;-69
2022/10/10 13:51:54;;;;;;;;;12.75;12.75;;;;;26.59;41.50;101631.00;146603;602;46911;-69
2022/10/10 13:55:02;;;;;;;;;;;;;;;;;;;;;
2022/10/10 13:57:59;;;;;;;;;13.00;12.75;;;;;26.57;41.14;101635.44;146608;570;46012;-70
2022/10/10 14:01:17;;;;;;;;;13.75;13.50;;;;;26.62;41.90;101633.66;146602;579;47016;-71
2022/10/10 14:04:27;;;;;;;;;15.50;13.50;;;;;26.66;42.40;101621.25;146608;563;46010;-69
2022/10/10 14:07:35;;;;;;;;;13.00;12.75;;;;;26.70;40.99;101615.06;146603;629;46012;-71
2022/10/10 14:10:35;;;;;;;;;14.00;13.75;;;;;26.67;41.16;101601.75;146607;634;46020;-69
2022/10/10 14:13:30;;;;;;;;;15.50;14.75;;;;;26.61;41.93;101604.41;146605;596;46016;-69
2022/10/10 14:16:33;;;;;;;;;16.50;14.75;;;;;26.53;42.00;101600.88;146600;712;46010;-69
2022/10/10 14:19:26;;;;;;;;;14.75;13.75;;;;;26.49;41.33;101597.34;146604;571;46012;-69
2022/10/10 14:22:47;;;;;;;;;14.00;13.00;;;;;26.45;41.50;101598.19;146607;620;46021;-70
2022/10/10 14:25:52;;;;;;;;;16.50;15.50;;;;;26.41;41.44;101597.28;146605;611;46016;-69
2022/10/10 14:29:00;;;;;;;;;12.75;12.75;;;;;26.32;40.44;101586.66;146607;706;46012;-69
2022/10/10 14:32:01;;;;;;;;;15.50;13.50;;;;;26.24;41.17;101586.66;146606;614;46016;-69
2022/10/10 14:34:59;;;;;;;;;14.75;13.50;;;;;26.15;40.77;101583.13;146609;719;46021;-68